Time;durP1;ratioP1;P1;durP2;ratioP2;P2;SDS_P1;SDS_P2;PMS_P1;PMS_P2;Temp;Humidity;BMP_temperature;BMP_pressure;BME280_temperature;BME280_humidity;BME280_pressure;Samples;Min_cycle;Max_cycle;Signal;HPM_P1;HPM_P2
2022/02/15 00:02:18;;;;;;;10.30;6.93;;;;;;;0.57;64.32;99708.63;5061852;28;20128;-62
2022/02/15 00:04:44;;;;;;;12.10;7.80;;;;;;;0.50;64.23;99703.44;5067019;28;20104;-62
2022/02/15 00:07:09;;;;;;;9.23;7.22;;;;;;;0.50;63.71;99698.34;5062006;28;20040;-62
2022/02/15 00:09:35;;;;;;;13.85;8.07;;;;;;;0.40;64.66;99691.34;5061486;28;20024;-62
2022/02/15 00:12:00;;;;;;;13.43;7.65;;;;;;;0.42;63.91;99699.00;5063800;28;20088;-63
2022/02/15 00:14:26;;;;;;;11.13;7.05;;;;;;;0.43;64.63;99700.72;5064789;28;20033;-61
2022/02/15 00:16:51;;;;;;;12.25;7.43;;;;;;;0.38;64.96;99705.72;5065559;28;20025;-61
2022/02/15 00:19:18;;;;;;;13.27;7.90;;;;;;;0.54;64.45;99698.38;5065487;28;20059;-62
2022/02/15 00:21:44;;;;;;;9.73;7.30;;;;;;;0.62;64.70;99696.84;5065421;28;20071;-60
2022/02/15 00:24:10;;;;;;;9.88;7.50;;;;;;;0.44;64.06;99690.56;5065597;28;20053;-60
2022/02/15 00:26:35;;;;;;;9.23;6.95;;;;;;;0.43;63.43;99695.63;5065303;28;20032;-61
2022/02/15 00:29:01;;;;;;;10.23;7.20;;;;;;;0.39;64.63;99694.72;5065396;28;20318;-60
2022/02/15 00:31:28;;;;;;;10.38;7.28;;;;;;;0.36;64.84;99704.84;5065376;28;20326;-60
2022/02/15 00:33:53;;;;;;;10.68;7.40;;;;;;;0.50;64.77;99703.44;5065015;28;20059;-60
2022/02/15 00:36:19;;;;;;;9.70;7.20;;;;;;;0.51;64.61;99701.72;5065265;28;20021;-60
2022/02/15 00:38:45;;;;;;;10.45;7.30;;;;;;;0.49;64.18;99711.88;5063956;28;20055;-59
2022/02/15 00:41:10;;;;;;;11.35;7.30;;;;;;;0.46;65.37;99716.94;5065237;28;20039;-59
2022/02/15 00:43:36;;;;;;;12.50;7.32;;;;;;;0.38;64.80;99722.69;5065341;28;20111;-60
2022/02/15 00:46:02;;;;;;;10.07;7.43;;;;;;;0.34;64.17;99717.56;5065217;28;20025;-61
2022/02/15 00:48:27;;;;;;;11.27;7.38;;;;;;;0.43;64.90;99721.09;5065038;28;20035;-60
2022/02/15 00:50:53;;;;;;;10.60;8.00;;;;;;;0.43;65.59;99718.53;5064984;28;20031;-61
2022/02/15 00:53:18;;;;;;;13.25;8.45;;;;;;;0.43;65.39;99719.41;5065053;28;20100;-60
2022/02/15 00:55:44;;;;;;;10.90;7.95;;;;;;;0.40;65.63;99715.94;5065315;28;20067;-60
2022/02/15 00:58:10;;;;;;;11.45;8.02;;;;;;;0.37;65.10;99714.22;5064239;28;20052;-59
2022/02/15 01:00:35;;;;;;;14.18;8.40;;;;;;;0.40;65.61;99721.03;5063280;28;20210;-60
2022/02/15 01:03:01;;;;;;;12.77;7.60;;;;;;;0.36;64.58;99722.69;5064421;28;20093;-60
2022/02/15 01:05:26;;;;;;;9.02;7.50;;;;;;;0.55;64.66;99723.03;5064763;28;20068;-60
2022/02/15 01:07:52;;;;;;;12.60;7.88;;;;;;;0.46;64.91;99726.28;5057750;28;20241;-60
2022/02/15 01:10:20;;;;;;;11.68;8.23;;;;;;;0.34;65.54;99709.03;5054888;28;20047;-60
2022/02/15 01:12:47;;;;;;;10.45;7.78;;;;;;;0.48;65.10;99728.00;5064597;28;20020;-60
2022/02/15 01:15:16;;;;;;;12.20;8.73;;;;;;;0.39;66.24;99716.78;5064459;28;20051;-60
2022/02/15 01:17:43;;;;;;;12.75;7.90;;;;;;;0.41;65.71;99723.59;5064660;28;20021;-60
2022/02/15 01:20:09;;;;;;;12.57;8.63;;;;;;;0.39;65.80;99726.97;5064580;28;20024;-60
2022/02/15 01:22:35;;;;;;;13.35;8.95;;;;;;;0.17;66.40;99679.00;5064206;28;20032;-61
2022/02/15 01:25:01;;;;;;;14.73;8.82;;;;;;;0.40;66.52;99729.56;5064525;28;20543;-60
2022/02/15 01:27:28;;;;;;;12.13;8.18;;;;;;;0.48;66.55;99733.09;5064254;28;20383;-60
2022/02/15 01:29:54;;;;;;;12.75;8.18;;;;;;;0.49;65.97;99728.88;5064272;28;20029;-60
2022/02/15 01:32:19;;;;;;;10.18;7.55;;;;;;;0.46;66.93;99752.59;5064334;28;20028;-60
2022/02/15 01:34:45;;;;;;;14.55;8.18;;;;;;;0.47;66.97;99740.72;5064344;28;20043;-61
2022/02/15 01:37:10;;;;;;;11.93;8.88;;;;;;;0.41;67.69;99745.69;5064365;28;20377;-60
2022/02/15 01:39:36;;;;;;;14.48;9.00;;;;;;;0.37;67.78;99752.41;5062912;28;20317;-60
2022/02/15 01:42:02;;;;;;;11.75;8.48;;;;;;;0.44;67.47;99754.25;5064137;28;20309;-59
2022/02/15 01:44:28;;;;;;;12.32;8.70;;;;;;;0.38;66.94;99754.13;5046664;28;20033;-59
2022/02/15 01:46:54;;;;;;;11.88;8.60;;;;;;;0.39;67.23;99750.75;5062818;28;20229;-59
2022/02/15 01:49:20;;;;;;;12.98;8.75;;;;;;;0.40;67.18;99756.69;5064164;28;20032;-60
2022/02/15 01:51:46;;;;;;;14.23;8.75;;;;;;;0.29;67.57;99743.75;5063720;28;20047;-59
2022/02/15 01:54:11;;;;;;;14.02;9.18;;;;;;;0.34;68.27;99752.31;5063991;28;20096;-59
2022/02/15 01:56:37;;;;;;;16.15;10.27;;;;;;;0.31;68.43;99749.72;5063866;28;20028;-59
2022/02/15 01:59:03;;;;;;;12.38;8.65;;;;;;;0.32;68.67;99748.91;5063861;28;20384;-60
2022/02/15 02:01:29;;;;;;;12.55;8.38;;;;;;;0.33;68.42;99756.56;5063393;28;20025;-61
2022/02/15 02:03:54;;;;;;;13.25;8.95;;;;;;;0.32;68.43;99743.81;5063607;28;20029;-60
2022/02/15 02:06:20;;;;;;;13.00;9.63;;;;;;;0.38;68.97;99764.31;5063668;28;20024;-59
2022/02/15 02:08:47;;;;;;;13.95;9.55;;;;;;;0.40;69.01;99766.88;5056616;28;20025;-61
2022/02/15 02:11:13;;;;;;;15.77;9.43;;;;;;;0.30;68.58;99753.09;5063539;28;20310;-61
2022/02/15 02:13:38;;;;;;;16.25;9.68;;;;;;;0.26;69.08;99754.72;5063593;28;20040;-62
2022/02/15 02:16:04;;;;;;;15.77;9.93;;;;;;;0.29;68.64;99762.44;5063370;28;20032;-62
2022/02/15 02:18:30;;;;;;;14.50;10.05;;;;;;;0.40;69.21;99767.75;5063355;28;20103;-62
2022/02/15 02:21:03;;;;;;;11.90;9.05;;;;;;;0.33;69.97;99764.22;5063487;28;20028;-63
2022/02/15 02:23:28;;;;;;;11.77;8.48;;;;;;;0.27;70.24;99761.56;5063216;28;20400;-64
2022/02/15 02:25:54;;;;;;;15.75;9.38;;;;;;;0.31;68.99;99768.44;5063351;28;20021;-63
2022/02/15 02:28:20;;;;;;;16.70;10.25;;;;;;;0.34;69.37;99762.53;5063153;28;20036;-62
2022/02/15 02:30:46;;;;;;;15.30;9.85;;;;;;;0.37;69.05;99760.06;5063210;28;20313;-62
2022/02/15 02:33:12;;;;;;;13.52;9.30;;;;;;;0.33;69.41;99763.38;5063234;28;20037;-61
2022/02/15 02:35:38;;;;;;;12.65;9.55;;;;;;;0.30;69.58;99771.78;5061599;28;20268;-60
2022/02/15 02:38:03;;;;;;;13.60;9.68;;;;;;;0.32;70.20;99757.41;5062496;28;20032;-60
2022/02/15 02:40:29;;;;;;;14.15;10.32;;;;;;;0.34;69.34;99768.50;5061686;28;20037;-61
2022/02/15 02:42:55;;;;;;;16.17;10.18;;;;;;;0.25;69.66;99773.38;5062994;28;20130;-61
2022/02/15 02:45:22;;;;;;;13.75;10.45;;;;;;;0.32;69.84;99775.22;5062848;28;20036;-62
2022/02/15 02:47:50;;;;;;;13.38;9.32;;;;;;;-0.14;69.62;99696.97;5063043;28;20035;-61
2022/02/15 02:50:18;;;;;;;14.15;10.20;;;;;;;0.15;69.88;99751.94;5063008;28;20067;-62
2022/02/15 02:52:44;;;;;;;14.52;10.13;;;;;;;0.14;70.33;99749.38;5065250;28;20055;-62
2022/02/15 02:55:10;;;;;;;16.30;9.88;;;;;;;0.28;71.11;99775.13;5076339;28;20025;-62
2022/02/15 02:57:37;;;;;;;14.93;10.38;;;;;;;0.22;69.97;99786.03;5063061;28;20305;-60
2022/02/15 03:00:12;;;;;;;14.15;9.80;;;;;;;-0.16;71.08;99724.94;5062686;28;20104;-61
2022/02/15 03:02:38;;;;;;;16.65;10.18;;;;;;;0.19;70.91;99788.53;5061743;28;20033;-61
2022/02/15 03:05:03;;;;;;;18.75;10.65;;;;;;;0.26;71.07;99787.84;5062864;28;20060;-60
2022/02/15 03:07:29;;;;;;;14.27;10.02;;;;;;;0.24;70.81;99783.53;5058937;28;20029;-61
2022/02/15 03:09:55;;;;;;;13.95;9.60;;;;;;;0.27;70.50;99781.03;5062069;28;20071;-61
2022/02/15 03:12:20;;;;;;;14.68;10.35;;;;;;;0.30;71.04;99781.97;5060667;28;20033;-60
2022/02/15 03:14:47;;;;;;;13.00;9.07;;;;;;;0.27;70.61;99784.47;5061337;28;20025;-61
2022/02/15 03:17:14;;;;;;;15.13;10.23;;;;;;;0.24;70.77;99786.06;5062539;28;20050;-61
2022/02/15 03:19:39;;;;;;;14.65;10.00;;;;;;;0.25;71.35;99788.66;5062560;28;20033;-62
2022/02/15 03:22:05;;;;;;;19.60;10.48;;;;;;;0.21;70.66;99788.56;5062497;28;20309;-61
2022/02/15 03:24:33;;;;;;;16.30;10.93;;;;;;;0.16;71.31;99784.22;5062646;28;20024;-62
2022/02/15 03:26:59;;;;;;;16.08;10.10;;;;;;;0.30;71.22;99793.84;5062407;28;20340;-62
2022/02/15 03:29:25;;;;;;;15.82;11.07;;;;;;;0.27;71.27;99794.66;5062727;28;20051;-62
2022/02/15 03:31:50;;;;;;;14.85;10.70;;;;;;;0.22;71.44;99798.78;5062564;28;20222;-62
2022/02/15 03:34:16;;;;;;;15.90;10.77;;;;;;;0.26;70.81;99789.53;5062484;28;20017;-61
2022/02/15 03:36:42;;;;;;;16.23;11.18;;;;;;;0.22;71.68;99792.84;5061352;28;20095;-60
2022/02/15 03:39:09;;;;;;;14.00;9.85;;;;;;;0.22;71.79;99791.13;5060984;28;20547;-61
2022/02/15 03:44:20;;;;;;;14.65;10.95;;;;;;;0.24;70.92;99801.34;5062437;28;20095;-62
2022/02/15 03:46:46;;;;;;;14.27;10.07;;;;;;;0.22;70.72;99797.94;5065606;28;20036;-62
2022/02/15 03:49:12;;;;;;;14.07;10.27;;;;;;;0.23;71.44;99802.19;5066405;28;20021;-61
2022/02/15 03:51:41;;;;;;;17.85;10.02;;;;;;;0.11;72.06;99805.31;5066013;28;20314;-61
2022/02/15 03:54:07;;;;;;;18.00;11.15;;;;;;;0.11;71.61;99803.63;5081423;28;20122;-61
2022/02/15 03:56:34;;;;;;;15.85;10.73;;;;;;;0.05;71.54;99803.50;5065909;28;20028;-61
2022/02/15 03:59:00;;;;;;;15.30;11.05;;;;;;;0.05;72.45;99805.19;5065909;28;20032;-61
2022/02/15 04:01:25;;;;;;;14.45;10.27;;;;;;;-0.08;72.06;99809.97;5065574;28;20079;-60
2022/02/15 04:03:51;;;;;;;16.08;10.82;;;;;;;-0.15;73.08;99807.25;5064630;28;20341;-60
2022/02/15 04:06:17;;;;;;;15.00;10.57;;;;;;;0.01;72.86;99831.41;5065788;28;20025;-60
2022/02/15 04:08:42;;;;;;;17.25;11.68;;;;;;;-0.17;72.88;99814.88;5064932;28;20419;-60
2022/02/15 04:11:08;;;;;;;16.60;10.70;;;;;;;-0.24;72.96;99807.91;5065986;28;20020;-59
2022/02/15 04:13:33;;;;;;;15.30;10.73;;;;;;;-0.22;73.04;99809.66;5065694;28;20025;-60
2022/02/15 04:15:59;;;;;;;14.75;10.35;;;;;;;-0.11;72.16;99826.88;5065547;28;20025;-60
2022/02/15 04:18:24;;;;;;;15.50;10.40;;;;;;;-0.21;72.37;99816.47;5065424;28;20039;-60
2022/02/15 04:20:50;;;;;;;16.48;10.82;;;;;;;-0.12;72.58;99825.16;5065585;28;20044;-60
2022/02/15 04:23:15;;;;;;;15.88;11.15;;;;;;;-0.16;73.49;99819.13;5065287;28;20225;-60
2022/02/15 04:25:41;;;;;;;15.15;10.93;;;;;;;-0.20;72.49;99817.31;5065397;28;20029;-60
2022/02/15 04:28:09;;;;;;;17.08;10.55;;;;;;;-0.24;73.05;99818.94;5065023;28;20075;-60
2022/02/15 04:30:35;;;;;;;18.52;11.90;;;;;;;-0.14;72.64;99821.69;5064136;28;20048;-61
2022/02/15 04:33:02;;;;;;;17.30;10.98;;;;;;;-0.18;72.48;99819.06;5065375;28;20067;-61
2022/02/15 04:35:27;;;;;;;18.02;10.93;;;;;;;-0.15;72.72;99822.53;5063913;28;20104;-61
2022/02/15 04:37:53;;;;;;;19.25;11.27;;;;;;;-0.15;72.49;99823.38;5065230;28;20135;-61
2022/02/15 04:40:19;;;;;;;18.58;11.32;;;;;;;-0.19;73.05;99824.13;5064867;28;20040;-62
2022/02/15 04:42:45;;;;;;;14.88;10.40;;;;;;;-0.16;72.50;99831.00;5064737;28;20027;-61
2022/02/15 04:45:11;;;;;;;16.85;11.85;;;;;;;-0.16;73.31;99825.91;5065758;28;20322;-63
2022/02/15 04:47:37;;;;;;;14.95;11.15;;;;;;;-0.18;72.75;99828.41;5064449;28;20318;-62
2022/02/15 04:50:03;;;;;;;18.02;11.57;;;;;;;-0.25;73.11;99835.03;5065047;28;20036;-63
2022/02/15 04:52:28;;;;;;;16.10;11.30;;;;;;;-0.29;72.96;99815.41;5064586;28;20102;-62
2022/02/15 04:54:54;;;;;;;17.95;11.27;;;;;;;-0.09;72.18;99841.34;5064676;28;20244;-63
2022/02/15 04:57:19;;;;;;;18.15;12.27;;;;;;;-0.29;72.74;99809.47;5063763;28;20037;-62
2022/02/15 04:59:45;;;;;;;18.20;11.55;;;;;;;-0.23;72.60;99841.03;5064774;28;20217;-62
2022/02/15 05:02:12;;;;;;;15.02;11.23;;;;;;;-0.18;72.70;99846.22;5064533;28;20346;-61
2022/02/15 05:04:50;;;;;;;17.88;11.60;;;;;;;-0.16;73.38;99842.03;5064464;28;20047;-62
2022/02/15 05:07:17;;;;;;;16.92;10.90;;;;;;;-0.18;72.33;99849.63;5064208;28;20032;-59
2022/02/15 05:09:42;;;;;;;16.63;11.43;;;;;;;-0.15;72.42;99835.25;5063194;28;20330;-59
2022/02/15 05:12:08;;;;;;;15.88;10.45;;;;;;;-0.18;72.66;99854.72;5064194;28;20154;-59
2022/02/15 05:14:33;;;;;;;18.02;11.65;;;;;;;-0.18;73.32;99847.06;5063984;28;20025;-58
2022/02/15 05:16:59;;;;;;;20.42;12.10;;;;;;;-0.22;72.92;99841.88;5062321;28;20325;-57
2022/02/15 05:19:24;;;;;;;15.68;11.15;;;;;;;-0.13;73.30;99839.53;5063681;28;20021;-57
2022/02/15 05:21:50;;;;;;;14.75;10.75;;;;;;;-0.05;72.61;99845.69;5064092;28;20029;-59
2022/02/15 05:24:15;;;;;;;16.85;11.02;;;;;;;-0.02;72.11;99844.91;5064016;28;20037;-59
2022/02/15 05:26:41;;;;;;;18.13;12.23;;;;;;;0.00;73.51;99843.28;5064024;28;20025;-59
2022/02/15 05:29:07;;;;;;;18.15;12.73;;;;;;;0.02;71.53;99846.69;5064122;28;20025;-60
2022/02/15 05:31:32;;;;;;;16.23;10.50;;;;;;;0.03;72.22;99843.34;5063621;28;20047;-60
2022/02/15 05:33:58;;;;;;;15.07;10.68;;;;;;;-0.12;71.51;99841.28;5062153;28;20017;-60
2022/02/15 05:36:23;;;;;;;14.13;10.63;;;;;;;-0.19;71.69;99857.22;5063480;28;20055;-60
2022/02/15 05:38:49;;;;;;;15.93;10.60;;;;;;;-0.23;72.35;99840.16;5063401;28;20062;-60
2022/02/15 05:41:14;;;;;;;16.42;10.57;;;;;;;-0.10;72.64;99856.56;5063464;28;20322;-60
2022/02/15 05:43:40;;;;;;;15.25;10.52;;;;;;;-0.05;72.29;99858.41;5063665;28;20314;-60
2022/02/15 05:46:05;;;;;;;16.52;10.60;;;;;;;0.03;71.79;99850.09;5063916;28;20025;-60
2022/02/15 05:48:31;;;;;;;15.48;10.95;;;;;;;-0.01;72.15;99855.13;5063663;28;20229;-60
2022/02/15 05:50:57;;;;;;;16.10;10.95;;;;;;;-0.04;71.26;99857.59;5063777;28;20252;-60
2022/02/15 05:53:24;;;;;;;16.80;10.73;;;;;;;-0.14;71.67;99880.22;5063743;28;20309;-60
2022/02/15 05:55:55;;;;;;;16.95;11.55;;;;;;;0.07;71.44;99865.50;5064144;28;20070;-61
2022/02/15 05:58:22;;;;;;;14.75;11.13;;;;;;;-0.01;70.91;99869.53;5063862;28;20028;-60
2022/02/15 06:00:49;;;;;;;18.58;10.80;;;;;;;0.08;70.93;99862.13;5062287;28;20041;-59
2022/02/15 06:05:58;;;;;;;15.50;10.27;;;;;;;0.13;70.06;99869.88;5062543;28;20310;-60
2022/02/15 06:08:24;;;;;;;16.08;10.93;;;;;;;0.17;70.35;99871.66;5052899;28;20044;-60
2022/02/15 06:10:51;;;;;;;15.77;10.20;;;;;;;0.19;70.85;99869.16;5059779;28;20048;-61
2022/02/15 06:13:17;;;;;;;14.23;9.80;;;;;;;0.14;70.79;99871.59;5062975;28;20041;-61
2022/02/15 06:15:43;;;;;;;17.17;10.95;;;;;;;0.09;70.49;99875.72;5056155;28;20037;-62
2022/02/15 06:18:09;;;;;;;15.38;10.27;;;;;;;0.22;70.98;99890.47;5062323;28;20033;-61
2022/02/15 06:20:35;;;;;;;16.65;10.23;;;;;;;0.13;70.79;99864.78;5063294;28;20052;-61
2022/02/15 06:23:01;;;;;;;13.35;9.63;;;;;;;0.28;69.84;99879.56;5063483;28;20160;-61
2022/02/15 06:25:26;;;;;;;15.38;10.68;;;;;;;0.29;69.72;99879.59;5063138;28;20375;-61
2022/02/15 06:27:52;;;;;;;16.98;10.20;;;;;;;0.29;69.79;99887.22;5063026;28;20023;-61
2022/02/15 06:30:17;;;;;;;14.57;10.40;;;;;;;0.25;70.15;99893.06;5063085;28;20233;-61
2022/02/15 06:32:43;;;;;;;14.07;10.85;;;;;;;0.26;69.23;99892.25;5062834;28;20254;-60
2022/02/15 06:35:09;;;;;;;14.80;9.68;;;;;;;0.24;69.53;99890.50;5062735;28;20066;-61
2022/02/15 06:37:36;;;;;;;17.52;10.43;;;;;;;0.33;69.68;99888.19;5062403;28;20205;-61
2022/02/15 06:40:03;;;;;;;15.02;9.85;;;;;;;0.21;69.39;99893.81;5062429;28;20021;-60
2022/02/15 06:42:33;;;;;;;14.13;9.25;;;;;;;0.36;68.45;99897.56;5062350;28;20021;-60
2022/02/15 06:44:58;;;;;;;16.98;10.55;;;;;;;0.27;69.48;99888.91;5062351;28;20033;-61
2022/02/15 06:47:24;;;;;;;15.18;9.95;;;;;;;0.30;69.49;99898.25;5062301;28;20039;-60
2022/02/15 06:49:49;;;;;;;15.68;10.20;;;;;;;0.38;68.91;99906.09;5061269;28;20031;-61
2022/02/15 06:52:15;;;;;;;13.40;9.32;;;;;;;-0.12;68.81;99842.97;5062036;28;20029;-60
2022/02/15 06:54:41;;;;;;;17.55;9.77;;;;;;;0.23;69.31;99914.22;5062427;28;20047;-60
2022/02/15 06:57:06;;;;;;;14.63;10.60;;;;;;;0.43;69.07;99909.59;5060586;28;20024;-61
2022/02/15 06:59:32;;;;;;;12.68;9.20;;;;;;;0.52;68.76;99899.63;5062468;28;20021;-61
2022/02/15 07:01:58;;;;;;;15.00;10.20;;;;;;;0.56;67.70;99903.13;5062575;28;20067;-61
2022/02/15 07:04:23;;;;;;;16.10;11.30;;;;;;;0.69;68.60;99912.75;5061961;28;20121;-61
2022/02/15 07:06:49;;;;;;;17.27;10.40;;;;;;;0.75;68.39;99912.88;5062302;28;20313;-61
2022/02/15 07:09:15;;;;;;;14.90;9.75;;;;;;;0.71;66.69;99903.44;5062417;28;20330;-61
2022/02/15 07:11:40;;;;;;;13.48;9.75;;;;;;;0.75;67.19;99917.13;5062325;28;20029;-61
2022/02/15 07:14:06;;;;;;;13.52;9.93;;;;;;;0.95;68.07;99917.56;5060775;28;20363;-61
2022/02/15 07:16:31;;;;;;;15.15;10.00;;;;;;;1.00;67.24;99916.81;5062343;28;20052;-61
2022/02/15 07:18:58;;;;;;;29.20;17.67;;;;;;;1.14;67.43;99922.22;5062441;28;20088;-61
2022/02/15 07:21:24;;;;;;;16.95;10.55;;;;;;;1.17;66.50;99923.97;5061788;28;20340;-61
2022/02/15 07:23:49;;;;;;;15.10;10.40;;;;;;;1.66;65.60;99916.41;5062112;28;20029;-61
2022/02/15 07:26:15;;;;;;;17.77;9.80;;;;;;;2.59;62.89;99913.66;5062139;28;20029;-60
2022/02/15 07:28:41;;;;;;;15.52;10.18;;;;;;;2.58;61.54;99917.09;5062075;28;20021;-61
2022/02/15 07:31:07;;;;;;;14.82;10.10;;;;;;;2.67;63.13;99916.34;5062109;28;20025;-60
2022/02/15 07:33:32;;;;;;;14.52;9.50;;;;;;;3.60;61.29;99920.91;5062453;28;20043;-62
2022/02/15 07:35:58;;;;;;;14.55;10.10;;;;;;;3.78;57.85;99913.41;5062442;28;20210;-60
2022/02/15 07:38:23;;;;;;;12.20;10.13;;;;;;;3.90;57.74;99925.47;5062438;28;20056;-61
2022/02/15 07:40:49;;;;;;;18.02;10.00;;;;;;;4.15;56.10;99924.00;5062182;28;20256;-61
2022/02/15 07:43:15;;;;;;;14.70;10.45;;;;;;;4.41;56.51;99904.56;5062559;28;20025;-61
2022/02/15 07:45:40;;;;;;;15.13;10.07;;;;;;;4.78;55.09;99927.88;5062297;28;20028;-60
2022/02/15 07:48:06;;;;;;;14.35;10.07;;;;;;;5.11;55.02;99919.50;5062330;28;20235;-60
2022/02/15 07:50:32;;;;;;;16.80;10.27;;;;;;;4.90;54.53;99932.22;5062369;28;20024;-59
2022/02/15 07:52:58;;;;;;;16.35;10.75;;;;;;;5.08;54.73;99928.91;5062063;28;20091;-60
2022/02/15 07:55:24;;;;;;;16.38;10.32;;;;;;;5.27;54.11;99911.84;5062336;28;20037;-61
2022/02/15 07:57:50;;;;;;;13.57;9.43;;;;;;;6.04;53.35;99917.19;5061251;28;20060;-60
2022/02/15 08:00:21;;;;;;;15.68;9.75;;;;;;;6.41;51.06;99918.94;5062172;28;20351;-61
2022/02/15 08:02:48;;;;;;;15.68;11.45;;;;;;;6.78;49.99;99906.00;5061913;28;20233;-61
2022/02/15 08:05:14;;;;;;;15.65;10.05;;;;;;;6.54;49.27;99923.19;5062093;28;20039;-61
2022/02/15 08:07:39;;;;;;;16.33;9.82;;;;;;;6.12;49.90;99927.50;5058945;28;20241;-61
2022/02/15 08:10:06;;;;;;;16.23;10.20;;;;;;;5.92;52.88;99909.47;5062330;28;20198;-61
2022/02/15 08:12:31;;;;;;;15.68;10.57;;;;;;;5.89;52.00;99915.44;5060611;28;20194;-59
2022/02/15 08:14:57;;;;;;;16.00;10.90;;;;;;;6.51;51.27;99915.47;5059891;28;20116;-60
2022/02/15 08:17:23;;;;;;;13.30;9.63;;;;;;;6.44;48.92;99913.78;5058735;28;20037;-60
2022/02/15 08:19:49;;;;;;;15.32;9.90;;;;;;;6.81;49.07;99916.28;5053659;28;20244;-61
2022/02/15 08:22:17;;;;;;;15.77;10.93;;;;;;;7.11;49.20;99912.75;5061420;28;20084;-60
2022/02/15 08:24:42;;;;;;;15.10;10.75;;;;;;;7.35;49.18;99924.69;5061422;28;20039;-60
2022/02/15 08:27:08;;;;;;;11.63;9.73;;;;;;;7.62;47.64;99917.69;5061163;28;20029;-60
2022/02/15 08:29:33;;;;;;;16.75;10.43;;;;;;;7.45;47.24;99924.66;5061317;28;20020;-60
2022/02/15 08:32:00;;;;;;;15.05;10.45;;;;;;;7.28;47.01;99920.41;5061947;28;20166;-61
2022/02/15 08:34:26;;;;;;;13.65;9.95;;;;;;;7.02;48.19;99923.94;5064997;28;20028;-58
2022/02/15 08:36:52;;;;;;;40.80;26.75;;;;;;;6.91;48.57;99920.53;5063830;28;20329;-59
2022/02/15 08:39:18;;;;;;;16.27;10.60;;;;;;;6.88;49.44;99930.84;5064863;28;20033;-58
2022/02/15 08:41:43;;;;;;;14.23;10.48;;;;;;;6.97;48.46;99924.81;5065103;28;20092;-59
2022/02/15 08:44:09;;;;;;;13.73;10.15;;;;;;;6.78;47.65;99926.59;5064686;28;20049;-59
2022/02/15 08:46:35;;;;;;;15.32;10.95;;;;;;;6.51;48.75;99918.94;5064234;28;20017;-60
2022/02/15 08:49:00;;;;;;;15.05;10.30;;;;;;;6.50;50.14;99924.06;5063213;28;20225;-60
2022/02/15 08:51:26;;;;;;;14.65;10.30;;;;;;;6.20;48.56;99925.81;5062921;28;20070;-60
2022/02/15 08:53:52;;;;;;;14.15;10.27;;;;;;;6.76;49.63;99930.91;5064484;28;20047;-60
2022/02/15 08:56:21;;;;;;;14.52;10.07;;;;;;;6.58;50.36;99940.34;5064266;28;20337;-59
2022/02/15 08:58:47;;;;;;;13.95;10.73;;;;;;;6.61;49.10;99927.47;5063464;28;20083;-60
2022/02/15 09:01:14;;;;;;;15.90;11.10;;;;;;;6.41;49.92;99929.22;5064611;28;20025;-59
2022/02/15 09:03:40;;;;;;;12.85;9.95;;;;;;;6.46;49.50;99922.38;5064216;28;20269;-60
2022/02/15 09:06:06;;;;;;;12.23;9.90;;;;;;;6.31;49.72;99926.63;5064193;28;20136;-60
2022/02/15 09:08:31;;;;;;;14.52;10.43;;;;;;;6.51;49.90;99925.78;5063483;28;20040;-60
2022/02/15 09:10:57;;;;;;;16.63;10.75;;;;;;;6.70;49.17;99930.03;5064163;28;20020;-60
2022/02/15 09:13:22;;;;;;;13.10;10.30;;;;;;;6.74;49.74;99929.19;5064139;28;20253;-60
2022/02/15 09:15:49;;;;;;;16.27;9.95;;;;;;;6.84;48.80;99929.16;5064184;28;20025;-60
2022/02/15 09:18:15;;;;;;;13.75;9.52;;;;;;;6.49;48.88;99932.66;5064166;28;20024;-60
2022/02/15 09:20:41;;;;;;;14.70;10.23;;;;;;;6.88;49.65;99931.72;5063012;28;20064;-61
2022/02/15 09:23:06;;;;;;;17.23;10.50;;;;;;;6.79;47.98;99934.31;5064265;28;20033;-60
2022/02/15 09:25:32;;;;;;;14.93;10.40;;;;;;;6.77;47.45;99938.63;5064086;28;20028;-61
2022/02/15 09:27:58;;;;;;;13.57;10.52;;;;;;;7.18;47.93;99918.75;5063781;28;20325;-61
2022/02/15 09:30:25;;;;;;;23.73;13.48;;;;;;;7.67;46.98;99912.53;5049981;28;20033;-60
2022/02/15 09:32:51;;;;;;;15.38;10.48;;;;;;;7.58;46.91;99934.03;5057189;28;20036;-59
2022/02/15 09:35:16;;;;;;;15.48;10.75;;;;;;;7.76;47.36;99925.34;5064194;28;20051;-59
2022/02/15 09:37:42;;;;;;;16.27;11.40;;;;;;;7.51;46.54;99927.19;5063981;28;20063;-59
2022/02/15 09:40:10;;;;;;;17.65;10.10;;;;;;;7.13;48.26;99885.28;5063266;28;20038;-60
2022/02/15 09:42:37;;;;;;;16.10;10.48;;;;;;;7.24;46.96;99931.63;5063883;28;20047;-59
2022/02/15 09:45:08;;;;;;;14.13;10.82;;;;;;;6.83;48.58;99904.28;5063421;28;20033;-60
2022/02/15 09:47:36;;;;;;;13.88;9.45;;;;;;;6.91;47.58;99934.28;5063276;28;20028;-61
2022/02/15 09:50:06;;;;;;;13.32;10.30;;;;;;;6.40;47.81;99943.81;5064036;28;20115;-61
2022/02/15 09:52:33;;;;;;;15.45;10.68;;;;;;;6.13;48.91;99918.91;5063327;28;20368;-61
2022/02/15 09:54:59;;;;;;;14.10;10.50;;;;;;;6.27;49.25;99942.06;5063895;28;20386;-61
2022/02/15 09:57:25;;;;;;;12.48;10.13;;;;;;;5.79;48.96;99944.56;5063767;28;20028;-61
2022/02/15 09:59:51;;;;;;;14.20;10.68;;;;;;;5.58;51.03;99951.34;5063286;28;20029;-61
2022/02/15 10:02:20;;;;;;;38.70;22.17;;;;;;;5.62;51.03;99917.09;5063432;28;20040;-61
2022/02/15 10:04:51;;;;;;;13.40;10.65;;;;;;;5.09;51.42;99875.00;5063291;28;20021;-60
2022/02/15 10:07:18;;;;;;;16.38;10.73;;;;;;;5.57;50.73;99952.19;5061472;28;20040;-60
2022/02/15 10:09:48;;;;;;;15.07;10.02;;;;;;;5.19;50.72;99940.06;5047858;28;20033;-60
2022/02/15 10:12:14;;;;;;;14.27;10.88;;;;;;;5.23;52.08;99949.50;5063721;28;20032;-61
2022/02/15 10:14:42;;;;;;;12.82;9.93;;;;;;;5.32;51.73;99948.69;5062275;28;20340;-61
2022/02/15 10:17:10;;;;;;;12.93;9.93;;;;;;;5.32;51.66;99949.53;5050565;28;20041;-60
2022/02/15 10:19:36;;;;;;;15.57;10.32;;;;;;;5.22;51.91;99946.94;5062242;28;20380;-61
2022/02/15 10:22:04;;;;;;;16.60;10.35;;;;;;;4.71;53.16;99893.63;5063527;28;20059;-63
2022/02/15 10:24:35;;;;;;;17.35;10.27;;;;;;;5.05;52.53;99947.69;5064928;28;20043;-61
2022/02/15 10:27:06;;;;;;;14.18;10.30;;;;;;;4.66;51.71;99901.31;5062871;28;20326;-60
2022/02/15 10:29:35;;;;;;;14.60;10.65;;;;;;;4.99;52.75;99930.56;5063095;28;20044;-60
2022/02/15 10:32:03;;;;;;;14.82;10.13;;;;;;;4.73;52.86;99885.94;5063105;28;20035;-61
2022/02/15 10:34:29;;;;;;;13.57;10.55;;;;;;;4.91;51.93;99946.78;5057224;28;20337;-61
2022/02/15 10:37:02;;;;;;;16.80;11.35;;;;;;;4.82;53.20;99927.06;5058796;28;20047;-61
2022/02/15 10:40:04;;;;;;;16.83;9.73;;;;;;;4.96;53.09;99948.50;5061812;28;20190;-61
2022/02/15 10:42:30;;;;;;;;;;;;;;;4.79;53.60;99945.00;5040402;28;20045;-62
2022/02/15 10:44:59;;;;;;;14.70;10.60;;;;;;;4.84;53.77;99945.88;5048531;28;19905;-63
2022/02/15 10:47:35;;;;;;;14.02;9.77;;;;;;;4.93;54.10;99948.50;5062985;28;20028;-62
2022/02/15 10:50:12;;;;;;;16.85;10.93;;;;;;;4.93;54.62;99953.63;5046805;28;20076;-62
2022/02/15 10:52:39;;;;;;;13.05;9.50;;;;;;;4.94;52.73;99941.66;5051766;28;20135;-60
2022/02/15 10:55:06;;;;;;;17.08;10.05;;;;;;;5.01;54.09;99959.66;5062452;28;20029;-61
2022/02/15 10:57:32;;;;;;;15.20;10.07;;;;;;;5.07;53.84;99955.41;5062924;28;20033;-62
2022/02/15 11:00:04;;;;;;;15.38;10.43;;;;;;;4.88;54.01;99937.34;5055459;28;20028;-61
2022/02/15 11:02:31;;;;;;;16.25;10.85;;;;;;;4.88;54.54;99952.75;5063085;28;20094;-60
2022/02/15 11:05:01;;;;;;;17.13;10.73;;;;;;;4.41;54.22;99889.16;5060423;28;20045;-61
2022/02/15 11:07:31;;;;;;;17.23;10.25;;;;;;;4.84;54.07;99949.31;5056175;28;20028;-61
2022/02/15 11:10:18;;;;;;;14.93;11.13;;;;;;;4.87;54.16;99956.16;5054836;28;20028;-63
2022/02/15 11:12:55;;;;;;;14.32;10.82;;;;;;;4.57;54.29;99901.22;5062344;28;20025;-62
2022/02/15 11:15:30;;;;;;;14.73;10.73;;;;;;;4.53;54.50;99896.94;5062177;28;20352;-61
2022/02/15 11:18:04;;;;;;;18.08;10.52;;;;;;;4.84;53.97;99962.16;5062498;28;20119;-63
2022/02/15 11:20:51;;;;;;;14.77;9.93;;;;;;;4.69;54.31;99890.22;5062662;28;20105;-61
2022/02/15 11:23:19;;;;;;;12.48;10.27;;;;;;;4.82;54.01;99957.84;5062875;28;20032;-63
2022/02/15 11:25:45;;;;;;;18.10;10.70;;;;;;;4.92;54.81;99954.47;5062450;28;20254;-61
2022/02/15 11:28:13;;;;;;;16.30;10.32;;;;;;;4.91;53.73;99947.63;5062342;28;20036;-62
2022/02/15 11:30:43;;;;;;;15.80;9.68;;;;;;;5.07;53.19;99957.97;5044632;28;20032;-60